TAF Text Data
IDs:
Format:
Raw Decoded Include METAR

Data at: 0233 UTC 24 Mar 2019

Region: TOP
KATL 240132Z 2402/2506 11003KT P6SM BKN250
  FM241800 19008G18KT P6SM FEW050 BKN250
  FM250200 VRB03KT P6SM SCT200


KBOS 232320Z 2400/2506 29016G27KT P6SM SKC
  FM240600 28012KT P6SM SKC
  FM241500 26012G22KT P6SM SKC
  FM242000 25012KT P6SM SCT150


KBWI 232326Z 2400/2506 30009KT P6SM FEW250
  FM240500 29005KT P6SM FEW250
  FM241600 23007KT P6SM FEW150 SCT250
  FM250400 VRB03KT P6SM SCT090 OVC200


KCLE 232320Z 2400/2506 03004KT P6SM SKC
  FM240200 20004KT P6SM SKC
  FM241200 20006KT P6SM BKN250
  FM241700 24008KT P6SM BKN080
  FM250000 21005KT P6SM OVC040
  FM250100 22004KT 6SM -RA BR OVC040
  FM250400 27004KT 6SM -RA BR OVC030


KCLT 232324Z 2400/2506 VRB03KT P6SM FEW250
  FM241300 18004KT P6SM FEW200
  FM241600 21008G17KT P6SM BKN200
  FM250000 19005KT P6SM BKN180


KCVG 232332Z 2400/2506 00000KT P6SM SCT250
  FM241300 16005KT P6SM OVC100
  FM241700 20006KT P6SM VCSH OVC060
  FM242000 19007KT P6SM VCSH OVC050
  FM250300 21007KT 5SM -SHRA BR OVC050


KDCA 232326Z 2400/2506 31009KT P6SM FEW250
  FM240600 29005KT P6SM FEW250
  FM241400 23005KT P6SM FEW150 SCT250


KDEN 240154Z 2402/2506 14008KT P6SM SCT080 BKN140
  FM240500 21011KT P6SM SCT140 SCT250
  FM241800 07008KT P6SM SCT070 BKN100
  FM242000 07011KT P6SM SCT050 OVC070
  PROB30 2420/2502 VRB15G25KT -SHRA BKN045


KDFW 240200Z 2402/2506 17015KT P6SM BKN250
  FM240500 18015KT P6SM BKN025
  FM241700 21015KT P6SM BKN030
  FM242000 21014KT P6SM SCT040
  FM250500 35010KT P6SM BKN035


KDTW 232320Z 2400/2506 22004KT P6SM SCT250
  FM241400 22008KT P6SM SCT080 OVC120
  FM242000 24009KT P6SM BKN045 OVC100
  FM250300 02012KT P6SM SCT025 OVC060


KEWR 232326Z 2400/2506 30016G26KT P6SM SKC
  FM240100 30013G21KT P6SM SKC
  FM240300 29011KT P6SM SKC
  FM240900 26008KT P6SM SKC
  FM241700 24012G20KT P6SM BKN200
  FM242200 23012KT P6SM BKN150
  FM250200 23007KT P6SM BKN100


KFLL 232320Z 2400/2506 09010KT P6SM FEW040
  FM240600 09008KT P6SM SCT035 SCT250
  FM241400 10015KT P6SM SCT025 BKN040
  FM250200 10010KT P6SM SCT025 BKN035


KIAD 232326Z 2400/2506 30009KT P6SM FEW250
  FM240500 30005KT P6SM FEW250
  FM241100 24004KT P6SM FEW200 FEW250
  FM241800 20008KT P6SM FEW140 SCT250
  FM250300 21005KT P6SM SCT100 OVC110


KIAH 232320Z 2400/2506 13015KT P6SM SCT035 BKN080 BKN250
  FM240100 14012KT P6SM SCT050 BKN250
  FM240600 14007KT P6SM SCT020
  FM241100 15005KT P6SM BKN015
  FM241700 17012KT P6SM SCT025 BKN035
  FM250300 17007KT P6SM SCT015 BKN025


KJFK 232326Z 2400/2506 30017G29KT P6SM SKC
  FM240200 30014G22KT P6SM SKC
  FM240400 29012KT P6SM SKC
  FM241100 27010KT P6SM SKC
  FM241700 23014G21KT P6SM BKN200
  FM242200 22013KT P6SM BKN150
  FM250200 23008KT P6SM BKN100


KLAS 232320Z 2400/2506 20016G25KT P6SM FEW100 SCT200
  FM240400 22012KT P6SM FEW100
  FM240900 22006KT P6SM FEW100
  FM241800 06006KT P6SM SCT250
  FM250200 21006KT P6SM SCT250


KLAX 240043Z 2401/2506 27015KT P6SM VCSH SCT025 BKN050
  TEMPO 2401/2403 BKN012 OVC025
  FM240400 27009KT P6SM SCT015
  FM240900 VRB03KT P6SM BKN015
  FM241800 25010KT P6SM FEW017


KLGA 232326Z 2400/2506 30016G27KT P6SM SKC
  FM240200 30013G21KT P6SM SKC
  FM240400 30012KT P6SM SKC
  FM241100 26009KT P6SM SKC
  FM241700 24012G19KT P6SM BKN200
  FM242200 24011KT P6SM BKN150
  FM250200 24008KT P6SM BKN100


KMCO 232320Z 2400/2506 10007KT P6SM SCT250
  FM240200 05004KT P6SM SCT250
  FM241400 10007KT P6SM FEW030 BKN250
  FM241900 13011KT P6SM SCT040 BKN250
  FM250100 12006KT P6SM SCT040 BKN200


KMDW 232327Z 2400/2506 13006KT P6SM SCT250
  FM240200 17005KT P6SM SCT100 BKN200
  FM241100 18006KT P6SM OVC050
  FM241500 16008KT 4SM -SHRA SCT020 OVC030
  FM241900 08009KT 6SM -SHRA SCT010 OVC020
  FM242200 04013G20KT 4SM -SHRA BR SCT007 OVC010
  FM250300 03015G21KT 6SM BR OVC015


KMEM 232330Z 2400/2506 14005KT P6SM BKN150
  FM241100 18007KT P6SM VCSH OVC080
  TEMPO 2414/2418 5SM -RA OVC040
  FM241800 20010G16KT P6SM BKN040
  FM250000 19008KT P6SM BKN040
  FM250400 19008KT P6SM VCTS BKN040CB


KMIA 232320Z 2400/2506 09010KT P6SM FEW040
  FM240600 09007KT P6SM SCT035 SCT250
  FM241400 10015KT P6SM SCT025 BKN040
  FM250200 10010KT P6SM SCT025 BKN035


KMSP 232342Z 2400/2506 17005KT P6SM SCT250
  FM240800 03004KT P6SM OVC100
  FM241800 02010G19KT P6SM SCT020 OVC035
  FM250300 02009KT P6SM SKC


KORD 232327Z 2400/2506 17006KT P6SM SCT100 BKN200
  FM241100 18006KT P6SM OVC050
  FM241500 16008KT 4SM -SHRA SCT020 OVC030
  FM241900 08009KT 6SM -SHRA SCT010 OVC020
  FM242200 04013G20KT 4SM -SHRA BR SCT007 OVC010
  FM250300 03015G21KT 6SM BR OVC015


KPDX 232339Z 2400/2424 31005KT P6SM VCSH SCT060 BKN070
  FM240300 26003KT P6SM BKN060
  FM240800 VRB02KT P6SM FEW040 BKN250
  FM241400 VRB02KT P6SM BKN012
  FM241700 VRB03KT P6SM SKC


KPHL 232321Z 2400/2506 29011KT P6SM SKC
  FM241600 24008KT P6SM FEW250
  FM242200 23009KT P6SM BKN200


KPHX 232337Z 2400/2506 27007KT P6SM FEW080 BKN250
  FM240700 10004KT P6SM BKN250
  FM242100 28006KT P6SM FEW250
  FM250200 35005KT P6SM SKC


KPIT 232320Z 2400/2506 27010KT P6SM SKC
  FM241300 22005KT P6SM BKN120
  FM241800 21010G18KT P6SM BKN080
  FM250200 VRB05KT 6SM -RA OVC035


KSAN 232323Z 2400/2506 29011KT P6SM SCT018 BKN200
  FM240300 28004KT P6SM BKN015
  FM241700 29005KT P6SM SCT017
  FM241900 29010KT P6SM FEW022
  FM250300 28005KT P6SM FEW020


KSEA 232324Z 2400/2506 29007KT P6SM FEW035 SCT200
  FM240400 30005KT P6SM FEW030 SCT200
  FM241200 20004KT P6SM BKN015 BKN030
  FM241800 20005KT P6SM BKN030
  FM242100 25004KT P6SM SCT040 SCT200


KSFO 232338Z 2400/2506 28017G22KT P6SM FEW030 SCT035
  FM240400 29010KT P6SM FEW020
  FM241000 VRB03KT P6SM FEW008
  FM241500 08004KT P6SM FEW010 SCT120 BKN250
  FM242200 27010KT P6SM SCT120 OVC250
  FM250300 VRB04KT P6SM FEW012 BKN120 OVC200
  FM250500 17004KT P6SM FEW015 BKN070 OVC100


KSLC 240207Z 2402/2506 20008KT P6SM VCSH SCT060 BKN080
  TEMPO 2402/2404 29010KT
  FM240400 16007KT P6SM VCSH SCT025 BKN040
  FM240700 16006KT P6SM -RA BKN025 OVC040
  FM241800 29009KT P6SM SCT050 BKN080
  FM242100 32008KT P6SM SCT070 BKN120


KSTL 240114Z 2401/2506 15012KT 6SM -SHRA OVC060
  FM240600 14008KT P6SM VCSH OVC040
  FM240900 14008KT P6SM VCSH OVC030
  FM241500 16008KT P6SM OVC040
  FM242000 19008KT P6SM VCTS BKN040CB
  FM250100 23007KT P6SM VCSH BKN040


KTPA 232321Z 2400/2506 30005KT P6SM SKC
  FM240400 VRB03KT P6SM FEW250
  FM241500 11007KT P6SM FEW030 FEW250
  FM241800 20007KT P6SM FEW040 SCT250
  FM242200 28007KT P6SM FEW050 SCT250